sensor_id;sensor_type;location;lat;lon;timestamp;P1;durP1;ratioP1;P2;durP2;ratioP2
321;SDS011;148;51.480;7.208;2022-10-31T16:32:58;17.20;;;7.47;;
321;SDS011;148;51.480;7.208;2022-10-31T16:35:33;15.83;;;6.90;;
321;SDS011;148;51.480;7.208;2022-10-31T16:37:59;19.93;;;7.67;;
321;SDS011;148;51.480;7.208;2022-10-31T16:40:24;21.63;;;7.37;;
321;SDS011;148;51.480;7.208;2022-10-31T16:42:50;24.87;;;8.17;;
321;SDS011;148;51.480;7.208;2022-10-31T16:45:20;17.70;;;6.93;;
321;SDS011;148;51.480;7.208;2022-10-31T16:47:48;23.33;;;7.33;;
321;SDS011;148;51.480;7.208;2022-10-31T16:50:19;24.07;;;7.77;;
321;SDS011;148;51.480;7.208;2022-10-31T16:52:45;22.70;;;8.60;;
321;SDS011;148;51.480;7.208;2022-10-31T16:55:15;14.43;;;7.17;;
321;SDS011;148;51.480;7.208;2022-10-31T16:57:43;16.40;;;7.63;;
321;SDS011;148;51.480;7.208;2022-10-31T17:00:14;18.73;;;7.03;;
321;SDS011;148;51.480;7.208;2022-10-31T17:18:55;13.00;;;6.33;;
321;SDS011;148;51.480;7.208;2022-10-31T17:21:22;16.80;;;6.60;;
321;SDS011;148;51.480;7.208;2022-10-31T17:23:51;21.30;;;7.30;;
321;SDS011;148;51.480;7.208;2022-10-31T17:26:18;14.10;;;6.10;;
321;SDS011;148;51.480;7.208;2022-10-31T17:28:44;30.20;;;8.40;;
321;SDS011;148;51.480;7.208;2022-10-31T17:33:52;24.40;;;6.57;;
321;SDS011;148;51.480;7.208;2022-10-31T17:36:19;10.80;;;5.83;;
321;SDS011;148;51.480;7.208;2022-10-31T17:38:45;16.43;;;6.47;;
321;SDS011;148;51.480;7.208;2022-10-31T17:41:11;15.70;;;6.00;;
321;SDS011;148;51.480;7.208;2022-10-31T17:43:36;16.77;;;5.90;;
321;SDS011;148;51.480;7.208;2022-10-31T17:46:02;15.77;;;6.23;;
321;SDS011;148;51.480;7.208;2022-10-31T17:48:28;21.50;;;6.40;;
321;SDS011;148;51.480;7.208;2022-10-31T17:50:54;17.43;;;6.20;;
321;SDS011;148;51.480;7.208;2022-10-31T18:38:59;13.63;;;5.37;;
321;SDS011;148;51.480;7.208;2022-10-31T18:41:27;10.83;;;6.17;;
321;SDS011;148;51.480;7.208;2022-10-31T18:43:55;17.40;;;5.77;;
321;SDS011;148;51.480;7.208;2022-10-31T18:46:23;20.67;;;5.77;;
321;SDS011;148;51.480;7.208;2022-10-31T18:48:50;19.90;;;6.20;;
321;SDS011;148;51.480;7.208;2022-10-31T18:51:15;17.27;;;5.77;;
321;SDS011;148;51.480;7.208;2022-10-31T18:53:42;13.00;;;4.97;;
321;SDS011;148;51.480;7.208;2022-10-31T18:56:14;14.23;;;4.77;;
321;SDS011;148;51.480;7.208;2022-10-31T18:58:39;15.87;;;5.03;;
321;SDS011;148;51.480;7.208;2022-10-31T19:01:06;17.70;;;5.20;;
321;SDS011;148;51.480;7.208;2022-10-31T19:03:33;9.73;;;5.03;;
321;SDS011;148;51.480;7.208;2022-10-31T19:05:59;11.40;;;4.80;;
321;SDS011;148;51.480;7.208;2022-10-31T19:08:25;18.90;;;5.90;;
321;SDS011;148;51.480;7.208;2022-10-31T19:10:51;13.03;;;4.60;;
321;SDS011;148;51.480;7.208;2022-10-31T19:13:16;14.40;;;5.37;;
321;SDS011;148;51.480;7.208;2022-10-31T19:15:42;8.57;;;4.67;;
321;SDS011;148;51.480;7.208;2022-10-31T19:18:08;11.83;;;5.50;;
321;SDS011;148;51.480;7.208;2022-10-31T19:20:36;13.23;;;5.53;;
321;SDS011;148;51.480;7.208;2022-10-31T19:23:02;11.90;;;5.20;;
321;SDS011;148;51.480;7.208;2022-10-31T19:25:27;19.27;;;5.40;;
321;SDS011;148;51.480;7.208;2022-10-31T19:27:53;17.33;;;5.50;;
321;SDS011;148;51.480;7.208;2022-10-31T19:30:19;12.70;;;5.43;;
321;SDS011;148;51.480;7.208;2022-10-31T19:32:45;13.47;;;5.70;;
321;SDS011;148;51.480;7.208;2022-10-31T19:35:11;14.47;;;5.40;;
321;SDS011;148;51.480;7.208;2022-10-31T19:37:37;14.10;;;5.37;;
321;SDS011;148;51.480;7.208;2022-10-31T19:40:05;10.63;;;5.00;;
321;SDS011;148;51.480;7.208;2022-10-31T19:42:32;14.10;;;5.97;;
321;SDS011;148;51.480;7.208;2022-10-31T19:44:59;11.20;;;5.13;;
321;SDS011;148;51.480;7.208;2022-10-31T19:47:25;11.77;;;5.37;;
321;SDS011;148;51.480;7.208;2022-10-31T19:49:50;19.07;;;5.67;;
321;SDS011;148;51.480;7.208;2022-10-31T19:52:16;17.63;;;5.47;;
